sensor_id;sensor_type;location;lat;lon;timestamp;P1;durP1;ratioP1;P2;durP2;ratioP2
22417;SDS011;11376;50.932;4.442;2023-09-19T00:00:37;14.88;;;1.90;;
22417;SDS011;11376;50.932;4.442;2023-09-19T00:03:03;8.90;;;1.67;;
22417;SDS011;11376;50.932;4.442;2023-09-19T00:05:33;10.90;;;1.90;;
22417;SDS011;11376;50.932;4.442;2023-09-19T00:08:00;8.88;;;1.83;;
22417;SDS011;11376;50.932;4.442;2023-09-19T00:10:26;9.13;;;1.30;;
22417;SDS011;11376;50.932;4.442;2023-09-19T00:12:56;11.30;;;1.75;;
22417;SDS011;11376;50.932;4.442;2023-09-19T00:15:24;8.10;;;1.52;;
22417;SDS011;11376;50.932;4.442;2023-09-19T00:17:53;9.97;;;2.00;;
22417;SDS011;11376;50.932;4.442;2023-09-19T00:20:19;7.07;;;1.52;;
22417;SDS011;11376;50.932;4.442;2023-09-19T00:22:48;14.27;;;1.80;;
22417;SDS011;11376;50.932;4.442;2023-09-19T00:25:17;11.37;;;1.93;;
22417;SDS011;11376;50.932;4.442;2023-09-19T00:27:43;8.37;;;1.43;;
22417;SDS011;11376;50.932;4.442;2023-09-19T00:30:10;13.70;;;1.83;;
22417;SDS011;11376;50.932;4.442;2023-09-19T00:32:41;13.23;;;1.93;;
22417;SDS011;11376;50.932;4.442;2023-09-19T00:35:07;15.23;;;1.85;;
22417;SDS011;11376;50.932;4.442;2023-09-19T00:37:36;12.60;;;2.53;;
22417;SDS011;11376;50.932;4.442;2023-09-19T00:40:06;9.48;;;1.85;;
22417;SDS011;11376;50.932;4.442;2023-09-19T00:42:36;4.40;;;1.13;;
22417;SDS011;11376;50.932;4.442;2023-09-19T00:45:06;12.10;;;1.95;;
22417;SDS011;11376;50.932;4.442;2023-09-19T00:47:40;9.00;;;1.80;;
22417;SDS011;11376;50.932;4.442;2023-09-19T00:50:19;22.53;;;2.23;;
22417;SDS011;11376;50.932;4.442;2023-09-19T00:52:47;11.75;;;1.98;;
22417;SDS011;11376;50.932;4.442;2023-09-19T00:55:15;11.13;;;1.90;;
22417;SDS011;11376;50.932;4.442;2023-09-19T00:57:44;13.35;;;1.95;;
22417;SDS011;11376;50.932;4.442;2023-09-19T01:00:10;10.02;;;1.95;;
22417;SDS011;11376;50.932;4.442;2023-09-19T01:02:40;9.40;;;1.45;;
22417;SDS011;11376;50.932;4.442;2023-09-19T01:05:09;13.75;;;1.67;;
22417;SDS011;11376;50.932;4.442;2023-09-19T01:07:35;9.47;;;1.70;;
22417;SDS011;11376;50.932;4.442;2023-09-19T01:10:04;11.50;;;1.58;;
22417;SDS011;11376;50.932;4.442;2023-09-19T01:23:47;9.38;;;1.65;;
22417;SDS011;11376;50.932;4.442;2023-09-19T01:29:36;8.43;;;1.77;;
22417;SDS011;11376;50.932;4.442;2023-09-19T01:32:05;10.47;;;1.70;;
22417;SDS011;11376;50.932;4.442;2023-09-19T01:34:44;9.30;;;1.80;;
22417;SDS011;11376;50.932;4.442;2023-09-19T01:37:18;6.78;;;1.42;;
22417;SDS011;11376;50.932;4.442;2023-09-19T01:39:47;11.10;;;1.77;;
22417;SDS011;11376;50.932;4.442;2023-09-19T01:42:28;10.57;;;1.70;;
22417;SDS011;11376;50.932;4.442;2023-09-19T01:45:03;17.83;;;1.90;;
22417;SDS011;11376;50.932;4.442;2023-09-19T01:47:32;13.57;;;2.00;;
22417;SDS011;11376;50.932;4.442;2023-09-19T01:52:36;11.80;;;2.00;;
22417;SDS011;11376;50.932;4.442;2023-09-19T01:55:13;7.65;;;1.30;;
22417;SDS011;11376;50.932;4.442;2023-09-19T01:57:45;10.10;;;1.87;;
22417;SDS011;11376;50.932;4.442;2023-09-19T02:00:17;12.38;;;1.50;;
22417;SDS011;11376;50.932;4.442;2023-09-19T02:02:46;17.23;;;2.40;;
22417;SDS011;11376;50.932;4.442;2023-09-19T02:05:12;9.68;;;2.17;;
22417;SDS011;11376;50.932;4.442;2023-09-19T02:07:38;12.87;;;2.40;;
22417;SDS011;11376;50.932;4.442;2023-09-19T02:10:05;16.90;;;2.22;;
22417;SDS011;11376;50.932;4.442;2023-09-19T02:12:32;15.35;;;2.10;;
22417;SDS011;11376;50.932;4.442;2023-09-19T02:14:58;10.48;;;1.90;;
22417;SDS011;11376;50.932;4.442;2023-09-19T02:17:24;11.90;;;2.03;;
22417;SDS011;11376;50.932;4.442;2023-09-19T02:19:53;13.17;;;2.23;;
22417;SDS011;11376;50.932;4.442;2023-09-19T02:22:20;8.57;;;1.83;;
22417;SDS011;11376;50.932;4.442;2023-09-19T02:24:49;8.57;;;1.67;;
22417;SDS011;11376;50.932;4.442;2023-09-19T02:27:15;10.50;;;1.52;;
22417;SDS011;11376;50.932;4.442;2023-09-19T02:29:42;10.17;;;1.60;;
22417;SDS011;11376;50.932;4.442;2023-09-19T02:32:08;12.53;;;2.10;;
22417;SDS011;11376;50.932;4.442;2023-09-19T02:34:37;10.50;;;2.08;;
22417;SDS011;11376;50.932;4.442;2023-09-19T02:37:04;9.45;;;1.40;;
22417;SDS011;11376;50.932;4.442;2023-09-19T02:39:33;10.60;;;2.28;;
22417;SDS011;11376;50.932;4.442;2023-09-19T02:42:00;13.52;;;2.00;;
22417;SDS011;11376;50.932;4.442;2023-09-19T02:44:25;10.93;;;2.10;;
22417;SDS011;11376;50.932;4.442;2023-09-19T02:46:52;14.50;;;2.35;;
22417;SDS011;11376;50.932;4.442;2023-09-19T02:49:18;13.20;;;1.75;;
22417;SDS011;11376;50.932;4.442;2023-09-19T02:51:44;16.02;;;1.98;;
22417;SDS011;11376;50.932;4.442;2023-09-19T02:54:11;6.97;;;1.23;;
22417;SDS011;11376;50.932;4.442;2023-09-19T02:56:36;9.32;;;1.58;;
22417;SDS011;11376;50.932;4.442;2023-09-19T02:59:02;10.97;;;1.80;;
22417;SDS011;11376;50.932;4.442;2023-09-19T03:01:28;5.40;;;1.37;;
22417;SDS011;11376;50.932;4.442;2023-09-19T03:03:54;13.30;;;1.90;;
22417;SDS011;11376;50.932;4.442;2023-09-19T03:06:20;13.00;;;1.70;;
22417;SDS011;11376;50.932;4.442;2023-09-19T03:08:46;8.73;;;1.70;;
22417;SDS011;11376;50.932;4.442;2023-09-19T03:11:13;10.33;;;1.70;;
22417;SDS011;11376;50.932;4.442;2023-09-19T03:13:41;11.85;;;1.55;;
22417;SDS011;11376;50.932;4.442;2023-09-19T03:16:07;10.57;;;1.60;;
22417;SDS011;11376;50.932;4.442;2023-09-19T03:18:36;12.37;;;2.50;;
22417;SDS011;11376;50.932;4.442;2023-09-19T03:21:02;14.10;;;2.07;;
22417;SDS011;11376;50.932;4.442;2023-09-19T03:23:28;6.90;;;1.50;;
22417;SDS011;11376;50.932;4.442;2023-09-19T03:25:54;7.78;;;1.40;;
22417;SDS011;11376;50.932;4.442;2023-09-19T03:28:21;12.57;;;2.10;;
22417;SDS011;11376;50.932;4.442;2023-09-19T03:33:26;6.50;;;1.37;;
22417;SDS011;11376;50.932;4.442;2023-09-19T03:35:52;10.80;;;1.83;;
22417;SDS011;11376;50.932;4.442;2023-09-19T03:38:18;6.30;;;1.13;;
22417;SDS011;11376;50.932;4.442;2023-09-19T03:40:44;10.83;;;1.83;;
22417;SDS011;11376;50.932;4.442;2023-09-19T03:43:10;7.57;;;1.70;;
22417;SDS011;11376;50.932;4.442;2023-09-19T03:45:36;13.40;;;2.30;;
22417;SDS011;11376;50.932;4.442;2023-09-19T03:48:07;7.87;;;1.00;;
22417;SDS011;11376;50.932;4.442;2023-09-19T03:50:36;14.27;;;2.03;;
22417;SDS011;11376;50.932;4.442;2023-09-19T03:53:02;13.53;;;2.00;;
22417;SDS011;11376;50.932;4.442;2023-09-19T03:55:28;16.37;;;1.83;;
22417;SDS011;11376;50.932;4.442;2023-09-19T03:57:55;8.30;;;1.60;;
22417;SDS011;11376;50.932;4.442;2023-09-19T04:00:21;14.00;;;2.20;;
22417;SDS011;11376;50.932;4.442;2023-09-19T04:02:49;18.63;;;2.70;;
22417;SDS011;11376;50.932;4.442;2023-09-19T04:05:17;13.95;;;1.95;;
22417;SDS011;11376;50.932;4.442;2023-09-19T04:07:43;14.07;;;2.27;;
22417;SDS011;11376;50.932;4.442;2023-09-19T04:10:09;11.70;;;1.90;;
22417;SDS011;11376;50.932;4.442;2023-09-19T04:12:36;13.93;;;2.13;;
22417;SDS011;11376;50.932;4.442;2023-09-19T04:15:03;12.43;;;2.03;;
22417;SDS011;11376;50.932;4.442;2023-09-19T04:17:32;7.03;;;1.60;;
22417;SDS011;11376;50.932;4.442;2023-09-19T04:19:58;15.83;;;2.37;;
22417;SDS011;11376;50.932;4.442;2023-09-19T04:22:24;12.70;;;2.00;;
22417;SDS011;11376;50.932;4.442;2023-09-19T04:24:50;12.20;;;2.07;;
22417;SDS011;11376;50.932;4.442;2023-09-19T04:27:15;14.27;;;2.00;;
22417;SDS011;11376;50.932;4.442;2023-09-19T04:29:41;11.17;;;2.07;;
22417;SDS011;11376;50.932;4.442;2023-09-19T04:32:07;16.60;;;1.90;;
22417;SDS011;11376;50.932;4.442;2023-09-19T04:34:34;10.03;;;1.90;;
22417;SDS011;11376;50.932;4.442;2023-09-19T04:37:00;14.70;;;2.30;;
22417;SDS011;11376;50.932;4.442;2023-09-19T04:39:27;12.93;;;2.00;;
22417;SDS011;11376;50.932;4.442;2023-09-19T04:41:53;22.57;;;2.93;;
22417;SDS011;11376;50.932;4.442;2023-09-19T04:44:31;10.37;;;1.60;;
22417;SDS011;11376;50.932;4.442;2023-09-19T04:46:57;10.53;;;1.93;;
22417;SDS011;11376;50.932;4.442;2023-09-19T04:49:24;6.40;;;1.33;;
22417;SDS011;11376;50.932;4.442;2023-09-19T04:51:50;6.67;;;1.27;;
22417;SDS011;11376;50.932;4.442;2023-09-19T04:54:15;17.27;;;2.47;;
22417;SDS011;11376;50.932;4.442;2023-09-19T04:56:43;9.90;;;1.70;;
22417;SDS011;11376;50.932;4.442;2023-09-19T04:59:08;16.47;;;2.53;;
22417;SDS011;11376;50.932;4.442;2023-09-19T05:01:35;11.63;;;2.23;;
22417;SDS011;11376;50.932;4.442;2023-09-19T05:04:01;6.33;;;1.03;;
22417;SDS011;11376;50.932;4.442;2023-09-19T05:06:29;11.97;;;1.83;;
22417;SDS011;11376;50.932;4.442;2023-09-19T05:08:55;12.33;;;2.00;;
22417;SDS011;11376;50.932;4.442;2023-09-19T05:11:21;14.87;;;2.10;;
22417;SDS011;11376;50.932;4.442;2023-09-19T05:13:48;13.20;;;1.93;;
22417;SDS011;11376;50.932;4.442;2023-09-19T05:16:17;8.17;;;1.70;;
22417;SDS011;11376;50.932;4.442;2023-09-19T05:18:43;7.67;;;1.20;;
22417;SDS011;11376;50.932;4.442;2023-09-19T05:21:09;13.90;;;1.93;;
22417;SDS011;11376;50.932;4.442;2023-09-19T05:23:35;8.10;;;1.83;;
22417;SDS011;11376;50.932;4.442;2023-09-19T05:26:01;23.33;;;2.00;;
22417;SDS011;11376;50.932;4.442;2023-09-19T05:28:29;13.87;;;1.67;;
22417;SDS011;11376;50.932;4.442;2023-09-19T05:30:54;9.57;;;1.57;;
22417;SDS011;11376;50.932;4.442;2023-09-19T05:33:20;11.77;;;2.37;;
22417;SDS011;11376;50.932;4.442;2023-09-19T05:35:47;10.83;;;1.50;;
22417;SDS011;11376;50.932;4.442;2023-09-19T05:38:13;13.07;;;1.90;;
22417;SDS011;11376;50.932;4.442;2023-09-19T05:40:40;14.80;;;2.60;;
22417;SDS011;11376;50.932;4.442;2023-09-19T05:43:07;13.83;;;2.17;;
22417;SDS011;11376;50.932;4.442;2023-09-19T05:45:33;10.47;;;1.90;;
22417;SDS011;11376;50.932;4.442;2023-09-19T05:48:10;13.53;;;2.40;;
22417;SDS011;11376;50.932;4.442;2023-09-19T05:50:38;11.57;;;1.93;;
22417;SDS011;11376;50.932;4.442;2023-09-19T05:53:04;12.80;;;2.50;;
22417;SDS011;11376;50.932;4.442;2023-09-19T05:55:30;14.13;;;1.70;;
22417;SDS011;11376;50.932;4.442;2023-09-19T05:57:56;12.00;;;2.07;;
22417;SDS011;11376;50.932;4.442;2023-09-19T06:00:22;9.30;;;1.90;;
22417;SDS011;11376;50.932;4.442;2023-09-19T06:02:52;14.37;;;1.97;;
22417;SDS011;11376;50.932;4.442;2023-09-19T06:05:18;17.10;;;2.10;;
22417;SDS011;11376;50.932;4.442;2023-09-19T06:07:45;11.77;;;1.67;;
22417;SDS011;11376;50.932;4.442;2023-09-19T06:10:10;13.37;;;2.23;;
22417;SDS011;11376;50.932;4.442;2023-09-19T06:12:39;12.33;;;2.37;;
22417;SDS011;11376;50.932;4.442;2023-09-19T06:15:09;13.70;;;2.07;;
22417;SDS011;11376;50.932;4.442;2023-09-19T06:17:46;12.03;;;1.27;;
22417;SDS011;11376;50.932;4.442;2023-09-19T06:20:12;16.83;;;2.87;;
22417;SDS011;11376;50.932;4.442;2023-09-19T06:22:40;11.70;;;2.30;;
22417;SDS011;11376;50.932;4.442;2023-09-19T06:25:07;11.47;;;1.80;;
22417;SDS011;11376;50.932;4.442;2023-09-19T06:27:39;11.73;;;1.87;;
22417;SDS011;11376;50.932;4.442;2023-09-19T06:30:09;10.80;;;1.90;;
22417;SDS011;11376;50.932;4.442;2023-09-19T06:32:36;12.33;;;1.77;;
22417;SDS011;11376;50.932;4.442;2023-09-19T06:35:02;10.33;;;2.07;;
22417;SDS011;11376;50.932;4.442;2023-09-19T06:37:28;7.43;;;1.80;;
22417;SDS011;11376;50.932;4.442;2023-09-19T06:39:54;9.27;;;1.20;;
22417;SDS011;11376;50.932;4.442;2023-09-19T06:42:22;11.63;;;1.67;;
22417;SDS011;11376;50.932;4.442;2023-09-19T06:44:48;11.03;;;2.30;;
22417;SDS011;11376;50.932;4.442;2023-09-19T06:47:14;16.20;;;2.57;;
22417;SDS011;11376;50.932;4.442;2023-09-19T06:49:41;9.97;;;1.70;;
22417;SDS011;11376;50.932;4.442;2023-09-19T06:52:10;8.67;;;1.87;;
22417;SDS011;11376;50.932;4.442;2023-09-19T06:54:36;11.60;;;2.03;;
22417;SDS011;11376;50.932;4.442;2023-09-19T06:57:02;9.50;;;2.00;;
22417;SDS011;11376;50.932;4.442;2023-09-19T06:59:28;9.27;;;1.43;;
22417;SDS011;11376;50.932;4.442;2023-09-19T07:01:54;13.13;;;2.33;;
22417;SDS011;11376;50.932;4.442;2023-09-19T07:04:20;16.63;;;2.30;;
22417;SDS011;11376;50.932;4.442;2023-09-19T07:06:51;12.40;;;1.40;;
22417;SDS011;11376;50.932;4.442;2023-09-19T07:09:17;5.37;;;1.43;;
22417;SDS011;11376;50.932;4.442;2023-09-19T07:11:45;22.13;;;1.97;;
22417;SDS011;11376;50.932;4.442;2023-09-19T07:14:12;18.73;;;2.28;;
22417;SDS011;11376;50.932;4.442;2023-09-19T07:16:38;11.83;;;1.53;;
22417;SDS011;11376;50.932;4.442;2023-09-19T07:19:05;11.87;;;2.00;;
22417;SDS011;11376;50.932;4.442;2023-09-19T07:21:31;14.73;;;1.97;;
22417;SDS011;11376;50.932;4.442;2023-09-19T07:24:00;8.03;;;1.63;;
22417;SDS011;11376;50.932;4.442;2023-09-19T07:26:27;11.10;;;1.80;;
22417;SDS011;11376;50.932;4.442;2023-09-19T07:28:53;8.93;;;1.70;;
22417;SDS011;11376;50.932;4.442;2023-09-19T07:31:19;10.77;;;2.13;;
22417;SDS011;11376;50.932;4.442;2023-09-19T07:33:45;19.97;;;1.90;;
22417;SDS011;11376;50.932;4.442;2023-09-19T07:36:11;14.67;;;1.90;;
22417;SDS011;11376;50.932;4.442;2023-09-19T07:38:39;18.27;;;3.30;;
22417;SDS011;11376;50.932;4.442;2023-09-19T07:41:05;12.07;;;2.00;;
22417;SDS011;11376;50.932;4.442;2023-09-19T07:43:31;10.60;;;1.80;;
22417;SDS011;11376;50.932;4.442;2023-09-19T07:46:02;10.90;;;2.15;;
22417;SDS011;11376;50.932;4.442;2023-09-19T07:48:28;10.15;;;1.40;;
22417;SDS011;11376;50.932;4.442;2023-09-19T07:50:54;6.63;;;1.65;;
22417;SDS011;11376;50.932;4.442;2023-09-19T07:53:20;10.30;;;1.75;;
22417;SDS011;11376;50.932;4.442;2023-09-19T07:55:47;10.80;;;1.65;;
22417;SDS011;11376;50.932;4.442;2023-09-19T07:58:13;13.77;;;1.98;;
22417;SDS011;11376;50.932;4.442;2023-09-19T08:00:40;12.05;;;2.13;;
22417;SDS011;11376;50.932;4.442;2023-09-19T08:03:06;12.30;;;2.03;;
22417;SDS011;11376;50.932;4.442;2023-09-19T08:05:33;14.30;;;2.38;;
22417;SDS011;11376;50.932;4.442;2023-09-19T08:07:59;16.55;;;2.33;;
22417;SDS011;11376;50.932;4.442;2023-09-19T08:10:26;8.25;;;1.88;;
22417;SDS011;11376;50.932;4.442;2023-09-19T08:12:52;9.23;;;1.20;;
22417;SDS011;11376;50.932;4.442;2023-09-19T08:15:23;8.52;;;1.40;;
22417;SDS011;11376;50.932;4.442;2023-09-19T08:17:48;9.30;;;1.60;;
22417;SDS011;11376;50.932;4.442;2023-09-19T08:20:15;15.10;;;1.77;;
22417;SDS011;11376;50.932;4.442;2023-09-19T08:22:49;11.98;;;1.83;;
22417;SDS011;11376;50.932;4.442;2023-09-19T08:25:17;16.38;;;2.10;;
22417;SDS011;11376;50.932;4.442;2023-09-19T08:27:47;13.95;;;1.90;;
22417;SDS011;11376;50.932;4.442;2023-09-19T08:30:15;4.32;;;1.27;;
22417;SDS011;11376;50.932;4.442;2023-09-19T08:32:41;13.25;;;2.13;;
22417;SDS011;11376;50.932;4.442;2023-09-19T08:35:11;9.02;;;1.40;;
22417;SDS011;11376;50.932;4.442;2023-09-19T08:37:36;6.15;;;1.10;;
22417;SDS011;11376;50.932;4.442;2023-09-19T08:40:02;9.00;;;1.58;;
22417;SDS011;11376;50.932;4.442;2023-09-19T08:42:28;12.32;;;1.75;;
22417;SDS011;11376;50.932;4.442;2023-09-19T08:44:55;12.60;;;2.22;;
22417;SDS011;11376;50.932;4.442;2023-09-19T08:47:33;9.43;;;1.83;;
22417;SDS011;11376;50.932;4.442;2023-09-19T08:50:14;7.80;;;1.52;;
22417;SDS011;11376;50.932;4.442;2023-09-19T08:52:53;16.10;;;2.08;;
22417;SDS011;11376;50.932;4.442;2023-09-19T08:55:23;13.70;;;1.42;;
22417;SDS011;11376;50.932;4.442;2023-09-19T08:57:52;13.50;;;2.13;;
22417;SDS011;11376;50.932;4.442;2023-09-19T09:00:28;11.90;;;1.73;;
22417;SDS011;11376;50.932;4.442;2023-09-19T09:02:54;5.53;;;1.13;;
22417;SDS011;11376;50.932;4.442;2023-09-19T09:05:21;12.27;;;1.63;;
22417;SDS011;11376;50.932;4.442;2023-09-19T09:07:49;10.32;;;1.55;;
22417;SDS011;11376;50.932;4.442;2023-09-19T09:10:19;10.07;;;2.08;;
22417;SDS011;11376;50.932;4.442;2023-09-19T09:12:48;15.15;;;2.15;;
22417;SDS011;11376;50.932;4.442;2023-09-19T09:15:16;18.55;;;2.08;;
22417;SDS011;11376;50.932;4.442;2023-09-19T09:17:46;8.02;;;1.55;;
22417;SDS011;11376;50.932;4.442;2023-09-19T09:20:13;9.02;;;1.17;;
22417;SDS011;11376;50.932;4.442;2023-09-19T09:22:39;9.48;;;1.85;;
22417;SDS011;11376;50.932;4.442;2023-09-19T09:25:15;11.90;;;1.40;;
22417;SDS011;11376;50.932;4.442;2023-09-19T09:27:43;12.75;;;1.40;;
22417;SDS011;11376;50.932;4.442;2023-09-19T09:30:10;10.15;;;2.00;;
22417;SDS011;11376;50.932;4.442;2023-09-19T09:33:09;10.88;;;1.20;;
22417;SDS011;11376;50.932;4.442;2023-09-19T09:35:36;9.10;;;1.65;;
22417;SDS011;11376;50.932;4.442;2023-09-19T09:38:06;12.10;;;1.65;;
22417;SDS011;11376;50.932;4.442;2023-09-19T09:40:46;4.03;;;0.88;;
22417;SDS011;11376;50.932;4.442;2023-09-19T09:43:35;12.73;;;1.38;;
22417;SDS011;11376;50.932;4.442;2023-09-19T09:51:33;6.90;;;1.50;;
22417;SDS011;11376;50.932;4.442;2023-09-19T09:54:11;8.90;;;1.27;;
22417;SDS011;11376;50.932;4.442;2023-09-19T09:56:52;10.05;;;1.08;;
22417;SDS011;11376;50.932;4.442;2023-09-19T09:59:19;9.40;;;0.93;;
22417;SDS011;11376;50.932;4.442;2023-09-19T10:01:48;6.68;;;1.30;;
22417;SDS011;11376;50.932;4.442;2023-09-19T10:04:27;9.60;;;1.45;;
22417;SDS011;11376;50.932;4.442;2023-09-19T10:07:01;10.18;;;1.55;;
22417;SDS011;11376;50.932;4.442;2023-09-19T10:09:30;8.88;;;1.77;;
22417;SDS011;11376;50.932;4.442;2023-09-19T10:12:09;6.38;;;0.98;;
22417;SDS011;11376;50.932;4.442;2023-09-19T10:14:38;6.88;;;1.27;;
22417;SDS011;11376;50.932;4.442;2023-09-19T10:17:06;8.45;;;1.10;;
22417;SDS011;11376;50.932;4.442;2023-09-19T10:19:46;5.72;;;1.10;;
22417;SDS011;11376;50.932;4.442;2023-09-19T10:22:26;7.75;;;0.95;;
22417;SDS011;11376;50.932;4.442;2023-09-19T10:24:55;6.30;;;1.00;;
22417;SDS011;11376;50.932;4.442;2023-09-19T10:27:22;10.43;;;1.02;;
22417;SDS011;11376;50.932;4.442;2023-09-19T10:29:51;8.35;;;1.20;;
22417;SDS011;11376;50.932;4.442;2023-09-19T10:32:22;11.20;;;1.02;;
22417;SDS011;11376;50.932;4.442;2023-09-19T10:34:48;9.45;;;0.98;;
22417;SDS011;11376;50.932;4.442;2023-09-19T10:37:17;4.47;;;0.88;;
22417;SDS011;11376;50.932;4.442;2023-09-19T10:39:48;9.50;;;1.33;;
22417;SDS011;11376;50.932;4.442;2023-09-19T10:42:16;10.82;;;1.20;;
22417;SDS011;11376;50.932;4.442;2023-09-19T10:44:45;8.23;;;0.90;;
22417;SDS011;11376;50.932;4.442;2023-09-19T10:47:18;5.88;;;1.42;;
22417;SDS011;11376;50.932;4.442;2023-09-19T10:49:45;6.72;;;1.20;;
22417;SDS011;11376;50.932;4.442;2023-09-19T10:52:12;7.90;;;0.70;;
22417;SDS011;11376;50.932;4.442;2023-09-19T10:54:52;6.28;;;0.82;;
22417;SDS011;11376;50.932;4.442;2023-09-19T10:57:22;2.63;;;0.80;;
22417;SDS011;11376;50.932;4.442;2023-09-19T11:00:08;7.63;;;1.00;;
22417;SDS011;11376;50.932;4.442;2023-09-19T11:06:02;7.50;;;1.30;;
22417;SDS011;11376;50.932;4.442;2023-09-19T11:09:02;3.95;;;0.88;;
22417;SDS011;11376;50.932;4.442;2023-09-19T11:11:41;3.22;;;0.80;;
22417;SDS011;11376;50.932;4.442;2023-09-19T11:30:42;8.65;;;1.05;;
22417;SDS011;11376;50.932;4.442;2023-09-19T11:33:22;7.15;;;0.88;;
22417;SDS011;11376;50.932;4.442;2023-09-19T11:43:53;6.50;;;0.90;;
22417;SDS011;11376;50.932;4.442;2023-09-19T11:46:24;5.82;;;1.20;;
22417;SDS011;11376;50.932;4.442;2023-09-19T11:48:50;6.78;;;0.70;;
22417;SDS011;11376;50.932;4.442;2023-09-19T11:51:20;4.50;;;0.90;;
22417;SDS011;11376;50.932;4.442;2023-09-19T11:53:53;7.53;;;0.70;;
22417;SDS011;11376;50.932;4.442;2023-09-19T11:56:20;3.10;;;0.50;;
22417;SDS011;11376;50.932;4.442;2023-09-19T11:58:49;4.93;;;1.08;;
22417;SDS011;11376;50.932;4.442;2023-09-19T12:01:21;5.45;;;0.63;;
22417;SDS011;11376;50.932;4.442;2023-09-19T12:03:58;3.72;;;0.68;;
22417;SDS011;11376;50.932;4.442;2023-09-19T12:06:27;7.50;;;1.13;;
22417;SDS011;11376;50.932;4.442;2023-09-19T12:08:55;6.07;;;0.77;;
22417;SDS011;11376;50.932;4.442;2023-09-19T12:11:28;3.83;;;0.70;;
22417;SDS011;11376;50.932;4.442;2023-09-19T12:13:58;5.80;;;0.57;;
22417;SDS011;11376;50.932;4.442;2023-09-19T12:16:26;6.72;;;0.88;;
22417;SDS011;11376;50.932;4.442;2023-09-19T12:18:55;3.35;;;0.70;;
22417;SDS011;11376;50.932;4.442;2023-09-19T12:23:58;7.82;;;0.93;;
22417;SDS011;11376;50.932;4.442;2023-09-19T12:26:38;7.45;;;0.95;;
22417;SDS011;11376;50.932;4.442;2023-09-19T12:29:14;6.40;;;0.98;;
22417;SDS011;11376;50.932;4.442;2023-09-19T12:34:20;13.10;;;1.15;;
22417;SDS011;11376;50.932;4.442;2023-09-19T12:36:47;7.03;;;1.20;;
22417;SDS011;11376;50.932;4.442;2023-09-19T12:39:23;7.65;;;0.88;;
22417;SDS011;11376;50.932;4.442;2023-09-19T12:41:54;5.45;;;0.75;;
22417;SDS011;11376;50.932;4.442;2023-09-19T12:44:21;4.13;;;0.95;;
22417;SDS011;11376;50.932;4.442;2023-09-19T12:46:50;3.58;;;0.60;;
22417;SDS011;11376;50.932;4.442;2023-09-19T12:49:16;5.53;;;0.70;;
22417;SDS011;11376;50.932;4.442;2023-09-19T12:51:48;6.05;;;0.80;;
22417;SDS011;11376;50.932;4.442;2023-09-19T12:54:14;4.63;;;0.70;;
22417;SDS011;11376;50.932;4.442;2023-09-19T12:56:45;9.23;;;1.30;;
22417;SDS011;11376;50.932;4.442;2023-09-19T12:59:14;3.58;;;0.95;;
22417;SDS011;11376;50.932;4.442;2023-09-19T13:01:40;3.30;;;0.65;;
22417;SDS011;11376;50.932;4.442;2023-09-19T13:06:47;5.97;;;0.70;;
22417;SDS011;11376;50.932;4.442;2023-09-19T13:09:14;3.42;;;0.60;;
22417;SDS011;11376;50.932;4.442;2023-09-19T13:11:45;6.10;;;1.10;;
22417;SDS011;11376;50.932;4.442;2023-09-19T13:16:55;6.40;;;1.00;;
22417;SDS011;11376;50.932;4.442;2023-09-19T13:19:37;7.85;;;0.95;;
22417;SDS011;11376;50.932;4.442;2023-09-19T13:25:12;5.30;;;0.88;;
22417;SDS011;11376;50.932;4.442;2023-09-19T13:27:47;6.78;;;0.82;;
22417;SDS011;11376;50.932;4.442;2023-09-19T13:30:16;6.53;;;0.60;;
22417;SDS011;11376;50.932;4.442;2023-09-19T13:32:43;3.55;;;0.80;;
22417;SDS011;11376;50.932;4.442;2023-09-19T13:35:09;2.80;;;0.65;;
22417;SDS011;11376;50.932;4.442;2023-09-19T13:37:35;4.18;;;0.77;;
22417;SDS011;11376;50.932;4.442;2023-09-19T13:40:07;4.20;;;0.65;;
22417;SDS011;11376;50.932;4.442;2023-09-19T13:42:33;2.60;;;0.77;;
22417;SDS011;11376;50.932;4.442;2023-09-19T13:44:59;5.70;;;0.75;;
22417;SDS011;11376;50.932;4.442;2023-09-19T13:47:25;3.30;;;0.65;;
22417;SDS011;11376;50.932;4.442;2023-09-19T13:49:52;5.25;;;0.90;;
22417;SDS011;11376;50.932;4.442;2023-09-19T13:52:20;9.10;;;1.02;;
22417;SDS011;11376;50.932;4.442;2023-09-19T13:54:48;9.63;;;0.90;;
22417;SDS011;11376;50.932;4.442;2023-09-19T13:57:15;3.75;;;0.75;;
22417;SDS011;11376;50.932;4.442;2023-09-19T13:59:41;2.95;;;0.90;;
22417;SDS011;11376;50.932;4.442;2023-09-19T14:02:07;2.85;;;0.90;;
22417;SDS011;11376;50.932;4.442;2023-09-19T14:04:33;2.70;;;0.70;;
22417;SDS011;11376;50.932;4.442;2023-09-19T14:07:00;3.72;;;0.68;;
22417;SDS011;11376;50.932;4.442;2023-09-19T14:09:26;2.38;;;0.68;;
22417;SDS011;11376;50.932;4.442;2023-09-19T14:11:52;5.93;;;1.17;;
22417;SDS011;11376;50.932;4.442;2023-09-19T14:14:18;6.40;;;0.90;;
22417;SDS011;11376;50.932;4.442;2023-09-19T14:16:45;6.80;;;1.30;;
22417;SDS011;11376;50.932;4.442;2023-09-19T14:19:11;5.93;;;1.00;;
22417;SDS011;11376;50.932;4.442;2023-09-19T14:21:36;5.65;;;1.00;;
22417;SDS011;11376;50.932;4.442;2023-09-19T14:24:04;5.47;;;0.98;;
22417;SDS011;11376;50.932;4.442;2023-09-19T14:26:34;7.55;;;0.98;;
22417;SDS011;11376;50.932;4.442;2023-09-19T14:29:03;8.38;;;1.20;;
22417;SDS011;11376;50.932;4.442;2023-09-19T14:31:28;6.28;;;1.15;;
22417;SDS011;11376;50.932;4.442;2023-09-19T14:33:55;10.02;;;1.40;;
22417;SDS011;11376;50.932;4.442;2023-09-19T14:36:24;5.60;;;1.08;;
22417;SDS011;11376;50.932;4.442;2023-09-19T14:38:52;6.05;;;1.20;;
22417;SDS011;11376;50.932;4.442;2023-09-19T14:41:22;6.25;;;1.48;;
22417;SDS011;11376;50.932;4.442;2023-09-19T14:43:51;3.28;;;0.80;;
22417;SDS011;11376;50.932;4.442;2023-09-19T14:46:17;3.83;;;0.82;;
22417;SDS011;11376;50.932;4.442;2023-09-19T14:48:43;6.63;;;1.13;;
22417;SDS011;11376;50.932;4.442;2023-09-19T14:51:11;5.90;;;1.15;;
22417;SDS011;11376;50.932;4.442;2023-09-19T14:53:36;7.97;;;1.40;;
22417;SDS011;11376;50.932;4.442;2023-09-19T14:56:07;7.18;;;0.82;;
22417;SDS011;11376;50.932;4.442;2023-09-19T14:58:34;8.50;;;1.15;;
22417;SDS011;11376;50.932;4.442;2023-09-19T15:01:07;6.32;;;1.35;;
22417;SDS011;11376;50.932;4.442;2023-09-19T15:03:37;3.78;;;0.73;;
22417;SDS011;11376;50.932;4.442;2023-09-19T15:06:08;3.33;;;0.90;;
22417;SDS011;11376;50.932;4.442;2023-09-19T15:08:39;4.90;;;0.90;;
22417;SDS011;11376;50.932;4.442;2023-09-19T15:11:10;7.75;;;0.90;;
22417;SDS011;11376;50.932;4.442;2023-09-19T15:13:37;7.90;;;1.30;;
22417;SDS011;11376;50.932;4.442;2023-09-19T15:16:03;4.65;;;1.13;;
22417;SDS011;11376;50.932;4.442;2023-09-19T15:18:38;6.43;;;1.17;;
22417;SDS011;11376;50.932;4.442;2023-09-19T15:21:06;6.43;;;1.00;;
22417;SDS011;11376;50.932;4.442;2023-09-19T15:23:33;7.35;;;1.10;;
22417;SDS011;11376;50.932;4.442;2023-09-19T15:26:09;6.07;;;1.17;;
22417;SDS011;11376;50.932;4.442;2023-09-19T15:28:37;6.95;;;1.58;;
22417;SDS011;11376;50.932;4.442;2023-09-19T15:33:33;5.70;;;1.13;;
22417;SDS011;11376;50.932;4.442;2023-09-19T15:36:03;5.70;;;0.80;;
22417;SDS011;11376;50.932;4.442;2023-09-19T15:38:30;7.97;;;1.13;;
22417;SDS011;11376;50.932;4.442;2023-09-19T15:40:59;8.77;;;1.63;;
22417;SDS011;11376;50.932;4.442;2023-09-19T15:43:25;5.63;;;1.30;;
22417;SDS011;11376;50.932;4.442;2023-09-19T15:45:50;2.60;;;0.70;;
22417;SDS011;11376;50.932;4.442;2023-09-19T15:48:16;5.57;;;0.88;;
22417;SDS011;11376;50.932;4.442;2023-09-19T15:50:43;4.40;;;0.60;;
22417;SDS011;11376;50.932;4.442;2023-09-19T15:53:09;10.57;;;1.77;;
22417;SDS011;11376;50.932;4.442;2023-09-19T15:55:38;5.47;;;1.13;;
22417;SDS011;11376;50.932;4.442;2023-09-19T15:58:08;8.13;;;1.40;;